Terminal Aerodrome Forecast
Issued by NWS

Home | Current Version | Previous Version | Text Only | Print | Product List | Glossary On
Versions: 1 2 3 4 5 6 7 8 9 10 11 12 13
310
FTUS44 KEWX 111126
TAFSSF
TAF
KSSF 111126Z 1112/1212 26005KT P6SM SKC
     FM111700 20010KT P6SM SKC
     FM120000 17005KT P6SM SKC=

USA.gov is the U.S. government's official web portal to all federal, state and local government web resources and services.